Western Head, Canada
Current Conditions -  °F | °C
As of 3:00 PM on Sunday 23 Nov 2014 (Local Time) from CYZX Reporting Station
Scattered Clouds Scattered Clouds  
Wind Chill: 41°   Ceiling: Unl
Heat Index: 46°   Visibility: 15mi
Dew Point: 37°   Wind: 13mph
Humidity: 71%   Direction: 280°W
Pressure: 30.05"   Gusts: 20mph
Location:  43.99°N, 64.68°W
Report Text: CYZX 231900Z 28011G17KT 15SM FEW040 SCT250 08/03 A3005 RMK CF1CI1 WNDY HILL 30008G15KT SLP179
Loading
Personal Weather Stations






























Interactive Weather Map New forecast layout! Learn more

10-Day Weather Forecast

Advertisements
Track Severe Weather on mobile